TimeCDT,TemperatureF,Dew PointF,Humidity,Sea Level PressureIn,VisibilityMPH,Wind Direction,Wind SpeedMPH,Gust SpeedMPH,PrecipitationIn,Events,Conditions,WindDirDegrees,DateUTC
12:15 AM,51.8,26.6,38,29.83,10.0,WNW,8.1,-,N/A,,Clear,290,2012-10-09 05:15:00
12:35 AM,50.0,24.8,37,29.83,10.0,WNW,6.9,-,N/A,,Clear,300,2012-10-09 05:35:00
12:55 AM,50.0,28.4,43,29.84,10.0,NW,4.6,-,N/A,,Clear,310,2012-10-09 05:55:00
1:15 AM,46.4,26.6,46,29.84,10.0,West,5.8,-,N/A,,Clear,270,2012-10-09 06:15:00
1:55 AM,48.2,32.0,54,29.84,10.0,NNE,4.6,-,N/A,,Clear,30,2012-10-09 06:55:00
2:15 AM,48.2,33.8,58,29.84,10.0,North,3.5,-,N/A,,Clear,350,2012-10-09 07:15:00
2:55 AM,44.6,32.0,61,29.84,10.0,Calm,Calm,-,N/A,,Clear,0,2012-10-09 07:55:00
3:15 AM,48.2,33.8,58,29.83,10.0,SSE,3.5,-,N/A,,Clear,150,2012-10-09 08:15:00
3:35 AM,46.4,33.8,62,29.82,10.0,SSE,3.5,-,N/A,,Clear,160,2012-10-09 08:35:00
3:55 AM,44.6,32.0,61,29.82,10.0,Calm,Calm,-,N/A,,Clear,0,2012-10-09 08:55:00
4:15 AM,39.2,30.2,70,29.82,10.0,Calm,Calm,-,N/A,,Clear,0,2012-10-09 09:15:00
4:35 AM,37.4,30.2,75,29.82,10.0,NW,5.8,-,N/A,,Clear,320,2012-10-09 09:35:00
4:55 AM,37.4,32.0,81,29.82,10.0,NNW,6.9,-,N/A,,Clear,330,2012-10-09 09:55:00
5:15 AM,39.2,32.0,75,29.83,10.0,NW,5.8,-,N/A,,Clear,310,2012-10-09 10:15:00
5:35 AM,39.2,32.0,75,29.84,10.0,WNW,6.9,-,N/A,,Clear,300,2012-10-09 10:35:00
5:55 AM,39.2,32.0,75,29.85,10.0,NNW,4.6,-,N/A,,Clear,330,2012-10-09 10:55:00
6:15 AM,44.6,37.4,76,29.86,10.0,North,6.9,-,N/A,,Clear,10,2012-10-09 11:15:00
6:35 AM,44.6,37.4,76,29.86,10.0,North,8.1,-,N/A,,Clear,10,2012-10-09 11:35:00
6:55 AM,44.6,37.4,76,29.85,10.0,North,8.1,-,N/A,,Clear,10,2012-10-09 11:55:00
7:15 AM,46.4,39.2,76,29.86,10.0,North,10.4,-,N/A,,Partly Cloudy,10,2012-10-09 12:15:00
7:35 AM,48.2,41.0,76,29.87,10.0,North,13.8,17.3,N/A,,Clear,360,2012-10-09 12:35:00
7:55 AM,48.2,41.0,76,29.88,10.0,North,13.8,19.6,N/A,,Clear,360,2012-10-09 12:55:00
8:15 AM,48.2,41.0,76,29.89,10.0,North,16.1,19.6,N/A,,Clear,10,2012-10-09 13:15:00
8:35 AM,48.2,41.0,76,29.90,10.0,North,15.0,24.2,N/A,,Clear,360,2012-10-09 13:35:00
8:55 AM,50.0,41.0,71,29.90,10.0,North,16.1,24.2,N/A,,Clear,360,2012-10-09 13:55:00
9:15 AM,50.0,41.0,71,29.92,10.0,North,19.6,31.1,N/A,,Clear,10,2012-10-09 14:15:00
9:35 AM,50.0,41.0,71,29.92,10.0,North,21.9,36.8,N/A,,Clear,360,2012-10-09 14:35:00
9:55 AM,50.0,39.2,66,29.94,10.0,North,21.9,33.4,N/A,,Clear,360,2012-10-09 14:55:00
10:15 AM,50.0,39.2,66,29.96,10.0,North,20.7,32.2,N/A,,Clear,360,2012-10-09 15:15:00
10:35 AM,50.0,37.4,62,29.97,10.0,North,25.3,33.4,N/A,,Clear,360,2012-10-09 15:35:00
10:55 AM,51.8,37.4,58,29.99,10.0,North,20.7,36.8,N/A,,Clear,350,2012-10-09 15:55:00
11:15 AM,50.0,37.4,62,30.00,10.0,North,23.0,43.7,N/A,,Scattered Clouds,360,2012-10-09 16:15:00
11:35 AM,50.0,37.4,62,30.01,10.0,North,21.9,34.5,N/A,,Partly Cloudy,360,2012-10-09 16:35:00
11:55 AM,50.0,33.8,54,30.01,10.0,North,16.1,27.6,N/A,,Partly Cloudy,360,2012-10-09 16:55:00
12:15 PM,50.0,32.0,50,30.01,10.0,North,16.1,20.7,N/A,,Clear,360,2012-10-09 17:15:00
12:35 PM,53.6,32.0,44,30.00,10.0,North,18.4,32.2,N/A,,Clear,360,2012-10-09 17:35:00
12:55 PM,53.6,28.4,38,30.00,10.0,North,20.7,34.5,N/A,,Clear,10,2012-10-09 17:55:00
1:15 PM,55.4,26.6,33,30.01,10.0,NNW,13.8,29.9,N/A,,Scattered Clouds,340,2012-10-09 18:15:00
1:35 PM,53.6,24.8,33,30.01,10.0,North,12.7,23.0,N/A,,Mostly Cloudy,350,2012-10-09 18:35:00
1:55 PM,53.6,21.2,28,30.01,10.0,North,13.8,24.2,N/A,,Overcast,350,2012-10-09 18:55:00
2:15 PM,53.6,19.4,26,30.01,10.0,North,15.0,26.5,N/A,,Scattered Clouds,350,2012-10-09 19:15:00
2:35 PM,53.6,19.4,26,30.01,10.0,North,13.8,28.8,N/A,,Clear,350,2012-10-09 19:35:00
2:55 PM,53.6,19.4,26,30.01,10.0,North,12.7,20.7,N/A,,Clear,350,2012-10-09 19:55:00
3:15 PM,53.6,21.2,28,30.02,10.0,NNW,13.8,20.7,N/A,,Clear,330,2012-10-09 20:15:00
3:35 PM,55.4,19.4,25,30.02,10.0,NNW,16.1,24.2,N/A,,Clear,340,2012-10-09 20:35:00
3:55 PM,53.6,19.4,26,30.02,10.0,NNW,13.8,18.4,N/A,,Partly Cloudy,340,2012-10-09 20:55:00
4:15 PM,55.4,19.4,25,30.02,10.0,NNW,16.1,21.9,N/A,,Clear,330,2012-10-09 21:15:00
4:35 PM,57.2,19.4,23,30.02,10.0,NNW,16.1,25.3,N/A,,Clear,340,2012-10-09 21:35:00
4:55 PM,55.4,19.4,25,30.03,10.0,North,15.0,24.2,N/A,,Clear,350,2012-10-09 21:55:00
5:15 PM,55.4,19.4,25,30.03,10.0,NNW,16.1,-,N/A,,Clear,340,2012-10-09 22:15:00
5:35 PM,55.4,19.4,25,30.04,10.0,North,16.1,20.7,N/A,,Clear,360,2012-10-09 22:35:00
5:55 PM,55.4,21.2,26,30.04,10.0,NNW,11.5,-,N/A,,Clear,340,2012-10-09 22:55:00
6:15 PM,55.4,21.2,26,30.04,10.0,NNW,16.1,25.3,N/A,,Clear,340,2012-10-09 23:15:00
6:35 PM,53.6,19.4,26,30.05,10.0,NNW,13.8,-,N/A,,Clear,340,2012-10-09 23:35:00
6:55 PM,51.8,19.4,28,30.06,10.0,NNW,9.2,-,N/A,,Clear,340,2012-10-09 23:55:00
7:15 PM,48.2,19.4,32,30.07,10.0,NNW,6.9,-,N/A,,Clear,340,2012-10-10 00:15:00
7:35 PM,46.4,19.4,34,30.08,10.0,North,6.9,-,N/A,,Clear,350,2012-10-10 00:35:00
7:55 PM,44.6,19.4,37,30.08,10.0,North,5.8,-,N/A,,Clear,350,2012-10-10 00:55:00
8:15 PM,41.0,19.4,42,30.10,10.0,North,5.8,-,N/A,,Clear,350,2012-10-10 01:15:00
8:35 PM,37.4,17.6,45,30.10,10.0,NNW,6.9,-,N/A,,Clear,330,2012-10-10 01:35:00
8:55 PM,37.4,17.6,45,30.11,10.0,NNW,8.1,-,N/A,,Clear,330,2012-10-10 01:55:00
9:15 PM,37.4,17.6,45,30.12,10.0,NNW,8.1,-,N/A,,Clear,330,2012-10-10 02:15:00
9:35 PM,35.6,17.6,48,30.13,10.0,NNW,8.1,-,N/A,,Clear,330,2012-10-10 02:35:00
9:55 PM,33.8,17.6,52,30.14,10.0,NW,8.1,-,N/A,,Clear,320,2012-10-10 02:55:00
10:15 PM,35.6,17.6,48,30.15,10.0,NW,8.1,-,N/A,,Clear,320,2012-10-10 03:15:00
10:35 PM,35.6,17.6,48,30.16,10.0,NW,5.8,-,N/A,,Clear,320,2012-10-10 03:35:00
10:55 PM,33.8,17.6,52,30.16,10.0,NW,4.6,-,N/A,,Clear,310,2012-10-10 03:55:00
11:15 PM,32.0,17.6,55,30.16,10.0,WNW,6.9,-,N/A,,Clear,290,2012-10-10 04:15:00
11:35 PM,32.0,17.6,55,30.17,10.0,West,6.9,-,N/A,,Clear,280,2012-10-10 04:35:00
11:55 PM,32.0,17.6,55,30.17,10.0,NW,9.2,-,N/A,,Partly Cloudy,310,2012-10-10 04:55:00